Time;durP1;ratioP1;P1;durP2;ratioP2;P2;SDS_P1;SDS_P2;PMS_P1;PMS_P2;Temp;Humidity;BMP_temperature;BMP_pressure;BME280_temperature;BME280_humidity;BME280_pressure;Samples;Min_cycle;Max_cycle;Signal;HPM_P1;HPM_P2
2022/05/25 00:02:13;;;;;;;7.88;2.05;;;;;;;12.73;66.14;99262.72;5005497;28;20030;-62
2022/05/25 00:04:39;;;;;;;3.95;1.70;;;;;;;12.62;66.11;99266.06;5005324;28;20033;-66
2022/05/25 00:07:05;;;;;;;4.93;2.17;;;;;;;12.54;66.97;99272.81;5003724;28;20104;-64
2022/05/25 00:09:30;;;;;;;2.88;1.40;;;;;;;12.47;66.95;99272.38;5005027;28;20062;-64
2022/05/25 00:11:56;;;;;;;3.85;2.15;;;;;;;12.42;67.46;99266.53;5004630;28;20116;-65
2022/05/25 00:14:21;;;;;;;3.78;1.65;;;;;;;12.37;66.96;99261.53;5005050;28;20046;-64
2022/05/25 00:16:47;;;;;;;1.33;1.23;;;;;;;12.35;66.96;99268.72;5003516;28;20041;-65
2022/05/25 00:21:56;;;;;;;3.45;1.60;;;;;;;12.24;67.46;99268.56;5003994;28;20417;-62
2022/05/25 00:24:22;;;;;;;2.00;1.42;;;;;;;12.15;67.50;99264.72;5004298;28;20042;-65
2022/05/25 00:26:47;;;;;;;5.07;1.67;;;;;;;12.12;68.00;99272.84;5002184;28;20140;-65
2022/05/25 00:29:14;;;;;;;4.70;1.67;;;;;;;12.07;68.25;99272.28;5007522;28;20046;-64
2022/05/25 00:31:40;;;;;;;2.70;1.50;;;;;;;12.05;67.93;99273.34;5008200;28;20038;-65
2022/05/25 00:34:05;;;;;;;4.53;1.70;;;;;;;12.02;68.38;99285.78;5007528;28;20107;-64
2022/05/25 00:36:31;;;;;;;5.78;2.17;;;;;;;11.98;68.04;99286.06;5007664;28;20038;-64
2022/05/25 00:38:57;;;;;;;6.32;1.90;;;;;;;11.95;68.59;99284.47;5008276;28;20559;-64
2022/05/25 00:41:28;;;;;;;2.97;1.75;;;;;;;11.92;68.30;99289.97;5007261;28;20053;-64
2022/05/25 00:43:55;;;;;;;2.20;1.60;;;;;;;11.87;69.02;99293.84;5005706;28;20049;-64
2022/05/25 00:46:23;;;;;;;3.05;1.73;;;;;;;11.83;68.96;99290.50;5007484;28;20036;-64
2022/05/25 00:48:58;;;;;;;5.57;1.88;;;;;;;11.82;68.75;99302.03;5017296;28;20044;-64
2022/05/25 00:51:36;;;;;;;5.40;2.38;;;;;;;11.78;69.04;99298.69;5017006;28;20072;-64
2022/05/25 00:54:11;;;;;;;2.88;1.23;;;;;;;11.73;69.24;99289.38;5008104;28;20049;-66
2022/05/25 00:56:41;;;;;;;1.92;1.58;;;;;;;11.69;69.67;99301.94;5007291;28;20478;-63
2022/05/25 00:59:19;;;;;;;3.20;1.98;;;;;;;11.62;70.02;99303.25;5007894;28;20145;-66
2022/05/25 01:01:44;;;;;;;3.05;1.70;;;;;;;11.59;69.65;99295.50;5015268;28;20555;-65
2022/05/25 01:04:11;;;;;;;4.47;2.10;;;;;;;11.56;69.84;99300.97;5015362;28;20046;-65
2022/05/25 01:06:51;;;;;;;3.05;1.80;;;;;;;11.55;69.98;99309.84;5005166;28;20123;-66
2022/05/25 01:09:27;;;;;;;4.68;2.22;;;;;;;11.49;70.14;99304.94;5007198;28;20050;-66
2022/05/25 01:12:26;;;;;;;2.22;1.73;;;;;;;11.47;70.43;99307.69;5007616;28;20033;-65
2022/05/25 01:15:10;;;;;;;6.20;1.70;;;;;;;11.43;70.43;99307.94;5007550;28;20506;-66
2022/05/25 01:18:07;;;;;;;3.10;1.77;;;;;;;11.39;71.07;99307.28;5006619;28;20088;-65
2022/05/25 01:20:41;;;;;;;5.90;2.55;;;;;;;11.35;71.18;99308.41;5007089;28;20432;-64
2022/05/25 01:23:43;;;;;;;5.32;2.08;;;;;;;11.33;71.22;99302.38;5006989;28;20457;-66
2022/05/25 01:26:24;;;;;;;3.40;1.83;;;;;;;11.32;71.00;99306.81;5006560;28;20038;-66
2022/05/25 01:29:01;;;;;;;6.85;2.00;;;;;;;11.30;71.35;99311.31;5007246;28;20046;-66
2022/05/25 01:32:04;;;;;;;4.55;1.63;;;;;;;11.25;71.34;99308.13;5007095;28;20103;-66
2022/05/25 01:34:40;;;;;;;1.98;1.60;;;;;;;11.21;71.62;99316.31;5025684;28;20472;-66
2022/05/25 01:37:15;;;;;;;4.68;1.80;;;;;;;11.20;71.64;99323.38;5005111;28;20065;-66
2022/05/25 01:39:51;;;;;;;4.28;1.73;;;;;;;11.18;71.82;99320.81;5005998;28;20046;-66
2022/05/25 01:42:39;;;;;;;3.88;1.80;;;;;;;11.17;71.69;99327.03;5005189;28;20608;-66
2022/05/25 01:45:08;;;;;;;4.90;2.42;;;;;;;11.14;72.21;99329.00;5007881;28;20038;-65
2022/05/25 01:47:35;;;;;;;3.60;2.40;;;;;;;11.13;72.36;99328.16;5008228;28;20109;-65
2022/05/25 01:50:10;;;;;;;3.50;2.05;;;;;;;11.13;72.40;99330.78;4988026;28;20128;-65
2022/05/25 01:52:42;;;;;;;2.23;1.73;;;;;;;11.13;72.28;99332.59;4987540;28;20038;-65
2022/05/25 01:55:13;;;;;;;4.32;2.30;;;;;;;11.14;72.28;99339.56;4987141;28;20044;-65
2022/05/25 01:57:43;;;;;;;3.17;2.10;;;;;;;11.13;72.14;99341.34;4986694;28;20110;-66
2022/05/25 02:00:08;;;;;;;6.15;2.40;;;;;;;11.10;72.13;99338.91;4986817;28;20746;-66
2022/05/25 02:05:20;;;;;;;2.95;1.85;;;;;;;11.08;72.19;99346.03;4986610;28;20116;-66
2022/05/25 02:08:25;;;;;;;3.55;2.28;;;;;;;11.06;72.51;99344.44;4986286;28;20045;-64
2022/05/25 02:11:15;;;;;;;6.85;2.72;;;;;;;11.05;72.97;99345.34;4994394;28;20160;-66
2022/05/25 02:14:12;;;;;;;5.05;2.15;;;;;;;11.03;72.75;99340.19;4987051;28;20048;-66
2022/05/25 02:17:06;;;;;;;6.57;1.88;;;;;;;11.02;72.52;99346.38;4986986;28;20046;-66
2022/05/25 02:19:45;;;;;;;3.35;1.77;;;;;;;10.99;72.59;99348.38;4986382;28;20394;-64
2022/05/25 02:22:21;;;;;;;5.20;2.42;;;;;;;11.00;72.63;99355.31;4985653;28;20038;-66
2022/05/25 02:24:57;;;;;;;2.92;1.83;;;;;;;10.95;72.76;99351.19;4986408;28;20030;-67
2022/05/25 02:27:32;;;;;;;3.22;2.35;;;;;;;10.93;73.02;99358.34;4985867;28;20088;-65
2022/05/25 02:30:01;;;;;;;5.00;2.97;;;;;;;10.92;73.17;99361.06;4986613;28;20089;-66
2022/05/25 02:32:35;;;;;;;5.43;2.58;;;;;;;10.89;72.84;99361.22;4986388;28;20384;-65
2022/05/25 02:35:02;;;;;;;5.07;2.28;;;;;;;10.88;73.39;99364.81;4986335;28;20049;-66
2022/05/25 02:37:30;;;;;;;4.90;3.00;;;;;;;10.86;73.03;99366.69;4993096;28;20037;-66
2022/05/25 02:39:58;;;;;;;9.07;2.72;;;;;;;10.87;73.33;99363.94;5006071;28;20096;-64
2022/05/25 02:42:24;;;;;;;4.32;2.30;;;;;;;10.87;72.95;99361.31;5005810;28;20149;-67
2022/05/25 02:44:50;;;;;;;3.65;2.33;;;;;;;10.90;73.15;99366.44;5005531;28;20038;-67
2022/05/25 02:47:15;;;;;;;4.82;2.25;;;;;;;10.91;73.14;99367.28;5005181;28;20096;-66
2022/05/25 02:49:41;;;;;;;2.80;2.50;;;;;;;10.89;73.17;99371.78;5004540;28;20038;-65
2022/05/25 02:52:08;;;;;;;3.90;2.58;;;;;;;10.86;73.20;99371.97;5005923;28;20034;-66
2022/05/25 02:54:34;;;;;;;5.32;2.78;;;;;;;10.87;72.77;99373.66;5005434;28;20042;-65
2022/05/25 02:56:59;;;;;;;6.03;2.50;;;;;;;10.85;73.18;99368.44;5004972;28;20041;-67
2022/05/25 02:59:24;;;;;;;9.55;4.47;;;;;;;10.84;73.03;99372.03;5005647;28;20046;-67
2022/05/25 03:01:50;;;;;;;7.05;2.90;;;;;;;10.83;73.37;99373.00;5005128;28;20650;-66
2022/05/25 03:04:15;;;;;;;6.13;2.75;;;;;;;10.83;72.98;99377.38;5004943;28;20565;-65
2022/05/25 03:06:41;;;;;;;2.30;1.90;;;;;;;10.83;73.19;99382.66;5004891;28;20895;-66
2022/05/25 03:09:06;;;;;;;4.13;2.50;;;;;;;10.80;73.22;99383.69;5004148;28;20112;-67
2022/05/25 03:11:31;;;;;;;3.42;2.50;;;;;;;10.74;73.62;99387.53;5005423;28;20555;-65
2022/05/25 03:13:57;;;;;;;3.88;2.60;;;;;;;10.73;73.56;99387.59;5004990;28;20065;-66
2022/05/25 03:16:22;;;;;;;2.97;2.03;;;;;;;10.76;73.51;99382.19;5004374;28;20038;-66
2022/05/25 03:18:49;;;;;;;5.07;2.35;;;;;;;10.74;73.32;99387.53;5005502;28;20044;-65
2022/05/25 03:21:14;;;;;;;8.35;2.72;;;;;;;10.72;73.40;99388.56;5005162;28;20513;-66
2022/05/25 03:23:40;;;;;;;4.35;2.95;;;;;;;10.72;73.24;99399.09;5005587;28;20037;-64
2022/05/25 03:26:06;;;;;;;6.60;2.90;;;;;;;10.70;73.42;99400.97;5004285;28;20810;-66
2022/05/25 03:28:31;;;;;;;7.55;2.75;;;;;;;10.70;73.58;99406.25;5005177;28;20481;-64
2022/05/25 03:30:57;;;;;;;3.97;2.50;;;;;;;10.68;73.69;99403.72;5003295;28;20044;-62
2022/05/25 03:33:22;;;;;;;6.57;2.78;;;;;;;10.69;73.51;99405.41;5005044;28;20033;-65
2022/05/25 03:35:47;;;;;;;3.45;2.38;;;;;;;10.68;73.67;99410.75;5004891;28;20049;-66
2022/05/25 03:38:13;;;;;;;4.03;2.88;;;;;;;10.67;73.56;99407.25;5004691;28;20036;-66
2022/05/25 03:40:39;;;;;;;4.93;2.47;;;;;;;10.67;73.70;99407.25;5005155;28;20036;-65
2022/05/25 03:43:06;;;;;;;4.45;2.63;;;;;;;10.68;73.78;99408.09;5004636;28;20048;-66
2022/05/25 03:45:32;;;;;;;3.13;2.70;;;;;;;10.62;73.93;99417.22;5004741;28;20042;-65
2022/05/25 03:47:57;;;;;;;5.90;3.35;;;;;;;10.59;73.87;99408.63;5004180;28;20029;-65
2022/05/25 03:50:23;;;;;;;4.13;2.67;;;;;;;10.59;73.81;99417.38;5004724;28;20124;-64
2022/05/25 03:52:48;;;;;;;5.03;3.10;;;;;;;10.61;74.14;99418.16;5004184;28;20401;-64
2022/05/25 03:55:31;;;;;;;14.88;2.80;;;;;;;10.59;74.01;99414.75;5004496;28;20042;-66
2022/05/25 03:57:57;;;;;;;4.45;2.47;;;;;;;10.57;74.04;99419.25;5003815;28;20041;-67
2022/05/25 04:00:22;;;;;;;9.20;2.58;;;;;;;10.57;74.31;99421.06;5003476;28;20038;-67
2022/05/25 04:02:47;;;;;;;5.47;3.05;;;;;;;10.58;73.93;99428.84;5004451;28;20041;-66
2022/05/25 04:05:13;;;;;;;6.13;3.20;;;;;;;10.60;73.94;99426.16;5004706;28;20041;-65
2022/05/25 04:07:44;;;;;;;5.60;3.05;;;;;;;10.63;73.68;99434.75;5004002;28;20038;-65
2022/05/25 04:10:17;;;;;;;4.22;2.78;;;;;;;10.63;73.63;99436.50;5004612;28;20095;-64
2022/05/25 04:12:43;;;;;;;4.30;2.78;;;;;;;10.63;74.15;99434.75;5004205;28;20025;-65
2022/05/25 04:15:11;;;;;;;3.95;2.30;;;;;;;10.66;73.62;99437.22;5004944;28;20041;-64
2022/05/25 04:17:40;;;;;;;4.78;2.88;;;;;;;10.67;73.83;99438.06;5004135;28;20071;-64
2022/05/25 04:20:06;;;;;;;5.22;2.30;;;;;;;10.68;74.33;99442.38;5002935;28;20565;-64
2022/05/25 04:22:32;;;;;;;4.88;2.00;;;;;;;10.73;73.69;99441.22;5004568;28;20514;-65
2022/05/25 04:24:59;;;;;;;5.13;2.20;;;;;;;10.71;73.35;99444.88;5004187;28;20041;-64
2022/05/25 04:27:26;;;;;;;4.30;2.45;;;;;;;10.76;73.54;99441.97;5003774;28;20046;-63
2022/05/25 04:29:51;;;;;;;4.55;3.10;;;;;;;10.79;73.40;99450.56;5004880;28;20050;-65
2022/05/25 04:32:17;;;;;;;4.40;2.33;;;;;;;10.81;73.41;99447.84;5005545;28;20038;-64
2022/05/25 04:34:43;;;;;;;4.60;2.78;;;;;;;10.82;73.45;99447.75;5006540;28;20049;-62
2022/05/25 04:39:54;;;;;;;3.55;2.25;;;;;;;10.91;73.22;99449.03;5004397;28;20065;-63
2022/05/25 04:42:20;;;;;;;5.32;2.80;;;;;;;10.92;72.86;99448.94;5005411;28;20049;-64
2022/05/25 04:44:46;;;;;;;2.75;2.03;;;;;;;10.95;72.69;99451.41;5005594;28;20042;-63
2022/05/25 04:47:12;;;;;;;3.60;2.05;;;;;;;10.95;72.69;99451.41;5005369;28;20038;-64
2022/05/25 04:49:44;;;;;;;14.80;3.25;;;;;;;10.95;72.63;99458.44;5006328;28;20705;-67
2022/05/25 04:52:10;;;;;;;7.03;2.42;;;;;;;10.96;72.80;99454.91;5005612;28;20383;-65
2022/05/25 04:54:36;;;;;;;2.90;1.77;;;;;;;11.03;72.16;99460.69;5004631;28;20382;-66
2022/05/25 04:57:20;;;;;;;6.07;2.30;;;;;;;11.09;72.02;99463.81;5003893;28;20114;-65
2022/05/25 04:59:54;;;;;;;11.13;3.45;;;;;;;11.17;71.83;99455.44;5004200;28;20037;-63
2022/05/25 05:02:20;;;;;;;4.13;2.03;;;;;;;11.30;71.21;99455.63;5004037;28;20053;-67
2022/05/25 05:04:46;;;;;;;5.07;2.35;;;;;;;11.42;70.14;99459.31;5004014;28;20037;-65
2022/05/25 05:07:12;;;;;;;2.63;1.92;;;;;;;11.50;69.95;99465.88;5003834;28;20084;-65
2022/05/25 05:09:39;;;;;;;2.72;2.03;;;;;;;11.56;69.84;99468.13;5003323;28;20540;-66
2022/05/25 05:12:05;;;;;;;5.32;2.22;;;;;;;11.66;69.16;99468.44;5002352;28;20053;-66
2022/05/25 05:14:30;;;;;;;6.55;2.10;;;;;;;11.72;68.90;99462.81;5004843;28;20034;-66
2022/05/25 05:17:01;;;;;;;2.53;1.92;;;;;;;11.79;68.66;99464.16;5006558;28;20342;-65
2022/05/25 05:19:27;;;;;;;3.25;1.75;;;;;;;11.88;68.94;99472.50;5006981;28;20046;-66
2022/05/25 05:21:54;;;;;;;3.25;1.85;;;;;;;11.97;67.68;99474.59;5006697;28;20042;-67
2022/05/25 05:24:20;;;;;;;4.38;2.35;;;;;;;12.02;67.51;99481.31;5007440;28;20528;-64
2022/05/25 05:26:46;;;;;;;4.43;2.38;;;;;;;12.03;67.54;99492.72;5006567;28;20057;-64
2022/05/25 05:29:11;;;;;;;5.78;2.30;;;;;;;12.02;67.01;99483.94;5007233;28;20068;-66
2022/05/25 05:31:37;;;;;;;3.97;2.15;;;;;;;12.09;67.40;99486.22;5006856;28;20072;-64
2022/05/25 05:34:03;;;;;;;4.05;1.83;;;;;;;12.05;66.42;99482.91;5006879;28;20666;-65
2022/05/25 05:36:33;;;;;;;4.53;2.25;;;;;;;12.05;66.42;99493.47;5006679;28;20065;-64
2022/05/25 05:39:02;;;;;;;4.13;2.10;;;;;;;12.00;66.84;99483.19;5007240;28;20109;-66
2022/05/25 05:41:55;;;;;;;8.65;4.00;;;;;;;12.05;67.04;99484.72;5005213;28;20041;-67
2022/05/25 05:44:25;;;;;;;3.67;2.15;;;;;;;12.15;66.37;99485.84;5006060;28;20038;-64
2022/05/25 05:46:53;;;;;;;3.33;1.63;;;;;;;12.22;66.65;99487.19;5006123;28;20524;-64
2022/05/25 05:49:18;;;;;;;4.28;2.03;;;;;;;12.18;65.72;99489.16;5007989;28;20054;-65
2022/05/25 05:51:44;;;;;;;2.20;1.80;;;;;;;12.17;66.00;99490.09;5007084;28;20044;-63
2022/05/25 05:54:10;;;;;;;2.67;1.80;;;;;;;12.13;65.33;99498.28;5005440;28;20042;-64
2022/05/25 05:56:36;;;;;;;2.67;2.03;;;;;;;12.14;65.45;99494.72;5005695;28;20410;-64
2022/05/25 05:59:03;;;;;;;4.80;1.98;;;;;;;12.21;65.77;99491.63;5006243;28;20045;-62
2022/05/25 06:01:28;;;;;;;2.97;1.85;;;;;;;12.28;65.26;99492.09;5006453;28;20041;-65
2022/05/25 06:03:54;;;;;;;2.80;1.83;;;;;;;12.28;64.69;99502.69;5005908;28;20042;-64
2022/05/25 06:06:19;;;;;;;4.50;1.92;;;;;;;12.28;64.56;99502.69;5006179;28;20048;-67
2022/05/25 06:08:46;;;;;;;6.47;2.33;;;;;;;12.33;64.41;99502.38;5006748;28;20087;-63
2022/05/25 06:11:16;;;;;;;8.95;1.92;;;;;;;12.41;63.55;99498.31;5006896;28;20076;-66
2022/05/25 06:13:42;;;;;;;2.47;1.48;;;;;;;12.51;63.10;99498.63;5006665;28;20065;-64
2022/05/25 06:21:35;;;;;;;3.38;1.73;;;;;;;12.93;61.87;99509.25;4986805;28;20045;-66
2022/05/25 06:24:01;;;;;;;3.65;1.73;;;;;;;12.94;61.50;99501.19;4986827;28;20038;-65
2022/05/25 06:26:30;;;;;;;2.28;1.92;;;;;;;12.98;61.11;99507.16;4985473;28;20038;-65
2022/05/25 06:28:55;;;;;;;3.83;1.38;;;;;;;13.07;60.33;99512.72;4986471;28;20089;-67
2022/05/25 06:31:21;;;;;;;4.13;1.90;;;;;;;13.18;60.19;99512.03;4986201;28;20074;-65
2022/05/25 06:33:46;;;;;;;2.70;1.58;;;;;;;13.28;60.34;99510.50;4986402;28;20045;-65
2022/05/25 06:36:16;;;;;;;2.95;1.35;;;;;;;13.37;59.22;99506.41;4986216;28;20042;-66
2022/05/25 06:38:42;;;;;;;6.43;1.60;;;;;;;13.40;58.36;99500.91;4989876;28;20627;-66
2022/05/25 06:41:08;;;;;;;3.33;1.80;;;;;;;13.40;56.99;99514.16;5006384;28;20038;-66
2022/05/25 06:43:34;;;;;;;2.88;1.48;;;;;;;13.55;58.45;99508.81;5006687;28;20036;-64
2022/05/25 06:45:59;;;;;;;5.30;1.60;;;;;;;13.71;58.17;99515.66;5007142;28;20037;-64
2022/05/25 06:48:25;;;;;;;4.85;1.40;;;;;;;13.85;56.91;99516.50;5007662;28;20041;-66
2022/05/25 06:50:50;;;;;;;5.40;2.22;;;;;;;14.42;57.91;99512.63;5006188;28;20053;-54
2022/05/25 06:53:15;;;;;;;2.60;1.40;;;;;;;14.81;55.28;99509.84;5006676;28;20045;-54
2022/05/25 06:55:40;;;;;;;2.10;1.40;;;;;;;15.08;52.90;99515.97;5007009;28;20034;-52
2022/05/25 06:58:06;;;;;;;3.38;1.50;;;;;;;15.34;51.49;99514.91;5005612;28;20046;-53
2022/05/25 07:00:35;;;;;;;4.07;1.40;;;;;;;15.46;50.81;99518.47;5006546;28;20062;-53
2022/05/25 07:03:04;;;;;;;1.80;1.20;;;;;;;15.54;50.44;99528.53;5006210;28;20053;-53
2022/05/25 07:05:30;;;;;;;3.05;1.55;;;;;;;15.61;49.82;99522.66;5006264;28;20402;-54
2022/05/25 07:07:55;;;;;;;2.67;1.30;;;;;;;15.68;49.99;99523.91;5005736;28;20041;-55
2022/05/25 07:10:21;;;;;;;1.77;1.20;;;;;;;15.91;49.17;99526.66;5006082;28;20179;-54
2022/05/25 07:12:47;;;;;;;3.60;1.60;;;;;;;16.05;48.53;99521.16;5005989;28;20038;-55
2022/05/25 07:15:12;;;;;;;3.65;1.63;;;;;;;16.18;50.39;99533.50;5004948;28;20146;-60
2022/05/25 07:17:37;;;;;;;1.90;1.30;;;;;;;16.28;47.79;99521.19;5005271;28;20037;-54
2022/05/25 07:20:06;;;;;;;2.20;1.30;;;;;;;16.30;47.49;99527.25;5005747;28;20040;-61
2022/05/25 07:22:32;;;;;;;5.68;1.30;;;;;;;16.44;47.47;99536.81;5006144;28;20046;-57
2022/05/25 07:24:57;;;;;;;1.65;1.08;;;;;;;16.69;46.84;99533.09;5005267;28;20034;-57
2022/05/25 07:27:22;;;;;;;2.58;1.45;;;;;;;17.01;45.01;99533.25;5004789;28;20045;-55
2022/05/25 07:29:48;;;;;;;2.65;1.17;;;;;;;17.31;44.02;99540.56;5005773;28;20068;-55
2022/05/25 07:32:14;;;;;;;4.13;1.15;;;;;;;17.45;43.57;99533.25;5005842;28;20038;-56
2022/05/25 07:34:45;;;;;;;4.15;1.35;;;;;;;17.66;43.58;99526.16;5006101;28;20042;-56
2022/05/25 07:37:16;;;;;;;1.75;1.23;;;;;;;17.79;42.01;99545.53;5004113;28;20038;-65
2022/05/25 07:40:07;;;;;;;4.57;1.20;;;;;;;17.56;42.49;99534.06;5007813;28;20061;-65
2022/05/25 07:42:33;;;;;;;2.22;1.23;;;;;;;17.56;42.62;99549.22;5006440;28;20075;-66
2022/05/25 07:45:01;;;;;;;2.40;1.00;;;;;;;17.52;42.10;99542.44;5006148;28;20490;-67
2022/05/25 07:47:29;;;;;;;3.28;1.60;;;;;;;17.34;42.49;99544.81;5004831;28;20038;-64
2022/05/25 07:49:54;;;;;;;1.15;0.95;;;;;;;17.20;43.17;99539.75;5005228;28;20099;-65
2022/05/25 07:52:22;;;;;;;1.63;1.10;;;;;;;17.26;43.25;99544.59;5004973;28;20045;-63
2022/05/25 07:54:48;;;;;;;1.20;1.10;;;;;;;17.22;43.56;99545.78;5004841;28;20125;-65
2022/05/25 07:57:13;;;;;;;2.33;1.08;;;;;;;17.32;43.64;99547.56;5004256;28;20141;-66
2022/05/25 07:59:40;;;;;;;2.38;1.30;;;;;;;17.53;42.80;99549.47;5005691;28;20057;-65
2022/05/25 08:08:02;;;;;;;5.43;1.50;;;;;;;17.76;42.31;99556.41;5004574;28;20151;-66
2022/05/25 08:10:28;;;;;;;2.38;1.23;;;;;;;18.05;41.36;99547.84;5003764;28;20038;-66
2022/05/25 08:12:56;;;;;;;3.15;1.30;;;;;;;18.23;40.52;99545.44;5004911;28;20080;-66
2022/05/25 08:15:22;;;;;;;2.35;1.50;;;;;;;18.22;40.34;99547.25;5004689;28;20053;-66
2022/05/25 08:17:48;;;;;;;2.42;1.30;;;;;;;18.31;40.86;99551.00;5004295;28;20484;-65
2022/05/25 08:20:14;;;;;;;3.40;1.52;;;;;;;18.30;40.80;99554.63;5005349;28;20168;-64
2022/05/25 08:22:40;;;;;;;3.78;1.38;;;;;;;18.17;40.08;99549.47;5005158;28;20045;-66
2022/05/25 08:25:08;;;;;;;2.60;1.25;;;;;;;17.99;39.73;99551.88;5005049;28;20030;-65
2022/05/25 08:27:36;;;;;;;7.30;1.30;;;;;;;17.94;40.77;99550.56;5004190;28;20802;-66
2022/05/25 08:30:01;;;;;;;1.35;1.20;;;;;;;17.96;40.99;99545.94;5004734;28;20046;-66
2022/05/25 08:32:26;;;;;;;1.85;1.20;;;;;;;17.97;40.86;99547.66;5003547;28;20037;-64
2022/05/25 08:34:52;;;;;;;7.00;2.30;;;;;;;17.91;40.81;99548.16;5005062;28;20394;-65
2022/05/25 08:37:17;;;;;;;17.88;2.75;;;;;;;17.94;41.20;99543.44;5004166;28;20410;-63
2022/05/25 08:39:42;;;;;;;1.13;1.00;;;;;;;17.98;40.90;99549.34;5005414;28;20144;-65
2022/05/25 08:42:18;;;;;;;2.58;1.10;;;;;;;18.08;40.69;99546.75;5005611;28;20038;-64
2022/05/25 08:44:47;;;;;;;1.80;1.25;;;;;;;18.20;41.57;99556.38;5004950;28;20136;-66
2022/05/25 08:47:13;;;;;;;2.53;1.45;;;;;;;18.29;41.42;99557.44;5004183;28;20101;-66
2022/05/25 08:49:43;;;;;;;2.97;1.95;;;;;;;18.23;40.85;99551.63;5006609;28;20069;-65
2022/05/25 08:52:28;;;;;;;6.05;1.58;;;;;;;18.26;40.78;99549.66;5008157;28;20038;-66
2022/05/25 08:54:54;;;;;;;2.60;1.35;;;;;;;18.55;40.90;99556.03;5008423;28;20038;-66
2022/05/25 08:57:30;;;;;;;2.92;1.30;;;;;;;18.86;39.91;99561.41;5007588;28;20056;-67
2022/05/25 09:00:06;;;;;;;1.17;1.10;;;;;;;19.21;39.52;99555.63;5008291;28;20076;-65
2022/05/25 09:02:59;;;;;;;2.63;1.33;;;;;;;19.91;38.62;99552.94;5008396;28;20067;-64
2022/05/25 09:05:49;;;;;;;2.90;1.40;;;;;;;20.30;37.29;99559.09;5008025;28;20053;-65
2022/05/25 09:08:38;;;;;;;3.22;1.20;;;;;;;20.83;36.79;99551.53;5008147;28;20037;-66
2022/05/25 09:11:29;;;;;;;2.88;1.63;;;;;;;21.12;36.24;99556.78;5007976;28;20421;-66
2022/05/25 09:14:00;;;;;;;4.35;1.55;;;;;;;21.32;35.10;99544.94;5007573;28;20044;-66
2022/05/25 09:16:29;;;;;;;13.30;3.25;;;;;;;21.09;35.73;99551.69;5006313;28;20050;-67
2022/05/25 09:19:05;;;;;;;2.65;1.38;;;;;;;20.84;36.88;99562.09;5007755;28;20038;-66
2022/05/25 09:21:36;;;;;;;6.20;1.45;;;;;;;20.62;36.48;99554.41;5007662;28;20053;-67
2022/05/25 09:24:08;;;;;;;5.97;1.50;;;;;;;20.29;37.19;99549.38;5008059;28;20505;-66
2022/05/25 09:26:33;;;;;;;2.25;1.85;;;;;;;20.06;37.61;99550.66;5005905;28;20430;-66
2022/05/25 09:29:04;;;;;;;2.70;1.35;;;;;;;20.50;36.71;99543.84;5005666;28;20034;-68
2022/05/25 09:31:36;;;;;;;7.82;2.67;;;;;;;21.14;36.39;99552.94;5003619;28;20107;-66
2022/05/25 09:34:07;;;;;;;4.35;2.08;;;;;;;21.47;35.26;99560.56;5004771;28;20442;-66
2022/05/25 09:36:43;;;;;;;4.07;1.63;;;;;;;21.14;35.14;99558.31;4998630;28;20069;-66
2022/05/25 09:39:23;;;;;;;7.38;1.80;;;;;;;21.70;34.61;99559.09;5000880;28;20498;-65
2022/05/25 09:41:54;;;;;;;2.35;1.80;;;;;;;22.60;33.20;99554.50;5001639;28;20042;-66
2022/05/25 09:44:20;;;;;;;3.40;1.85;;;;;;;23.20;31.52;99552.78;5006635;28;20380;-66
2022/05/25 09:46:53;;;;;;;1.20;1.02;;;;;;;22.18;33.18;99549.81;5007355;28;20030;-67
2022/05/25 09:49:44;;;;;;;9.35;2.13;;;;;;;22.56;32.56;99545.06;5007174;28;20061;-66
2022/05/25 09:52:18;;;;;;;1.98;1.63;;;;;;;22.69;31.71;99550.00;5007425;28;20608;-66
2022/05/25 09:54:47;;;;;;;;;;;;;;;23.26;29.64;99546.75;5008673;28;20038;-66
2022/05/25 09:57:30;;;;;;;3.30;1.90;;;;;;;23.96;28.39;99551.81;5006663;28;19921;-67
2022/05/25 10:00:03;;;;;;;3.65;2.35;;;;;;;24.39;27.31;99555.16;5006031;28;20040;-67
2022/05/25 10:02:47;;;;;;;2.40;1.95;;;;;;;24.29;27.35;99549.09;5007417;28;20033;-67
2022/05/25 10:05:16;;;;;;;2.45;1.52;;;;;;;24.69;27.36;99542.03;5007518;28;20081;-66
2022/05/25 10:07:53;;;;;;;3.35;1.75;;;;;;;25.16;25.60;99560.06;5006721;28;20041;-67
2022/05/25 10:10:33;;;;;;;3.03;1.98;;;;;;;25.25;25.73;99550.91;5006819;28;20096;-65
2022/05/25 10:13:00;;;;;;;2.50;1.45;;;;;;;25.77;25.66;99554.81;5005106;28;20180;-65
2022/05/25 10:15:34;;;;;;;2.58;1.77;;;;;;;25.43;25.59;99554.22;5006831;28;20038;-64
2022/05/25 10:18:01;;;;;;;5.40;1.95;;;;;;;25.18;26.03;99553.50;5006438;28;20030;-64
2022/05/25 10:20:36;;;;;;;4.60;1.70;;;;;;;25.86;25.50;99553.78;5007097;28;20044;-66
2022/05/25 10:23:11;;;;;;;9.82;2.08;;;;;;;25.95;25.81;99544.63;5006712;28;20037;-64
2022/05/25 10:25:42;;;;;;;;;;;;;;;26.07;25.14;99539.63;5007230;28;20038;-65
2022/05/25 10:28:36;;;;;;;3.13;1.58;;;;;;;25.77;24.94;99538.63;5010683;28;26065;-65
2022/05/25 10:37:08;;;;;;;7.55;2.38;;;;;;;24.13;27.34;99549.97;4987226;28;20049;-67
2022/05/25 10:39:44;;;;;;;5.40;2.53;;;;;;;23.25;28.22;99553.16;4987193;28;20038;-65
2022/05/25 10:42:22;;;;;;;7.78;1.80;;;;;;;22.42;29.66;99554.56;4986505;28;20054;-66
2022/05/25 10:45:09;;;;;;;1.20;0.98;;;;;;;22.21;30.06;99557.56;4986953;28;20104;-67
2022/05/25 10:47:49;;;;;;;16.42;3.30;;;;;;;22.40;30.21;99561.94;4985814;28;20117;-66
2022/05/25 10:50:23;;;;;;;5.15;1.73;;;;;;;23.35;28.92;99546.63;4986433;28;20057;-67
2022/05/25 10:52:53;;;;;;;2.17;1.25;;;;;;;23.54;28.76;99541.97;5002882;28;20081;-66
2022/05/25 10:55:20;;;;;;;20.98;2.75;;;;;;;23.41;28.98;99534.38;5006606;28;20128;-67
2022/05/25 10:57:45;;;;;;;3.28;1.50;;;;;;;23.13;28.92;99550.75;5006002;28;20041;-67
2022/05/25 11:00:35;;;;;;;3.97;1.73;;;;;;;23.10;29.28;99551.06;5005825;28;20037;-68
2022/05/25 11:03:35;;;;;;;4.60;1.48;;;;;;;22.76;30.47;99545.66;5005942;28;20042;-67
2022/05/25 11:06:22;;;;;;;2.40;1.20;;;;;;;22.10;30.87;99552.41;5005433;28;20038;-65
2022/05/25 11:09:17;;;;;;;5.40;1.30;;;;;;;21.04;32.56;99567.38;5005853;28;20616;-65
2022/05/25 11:11:51;;;;;;;3.42;1.88;;;;;;;20.71;33.51;99562.41;5005537;28;20045;-68
2022/05/25 11:14:26;;;;;;;2.33;1.48;;;;;;;20.88;33.68;99568.00;5005970;28;20509;-66
2022/05/25 11:17:06;;;;;;;6.40;1.75;;;;;;;20.74;33.68;99564.81;5005317;28;20038;-65
2022/05/25 11:19:52;;;;;;;1.85;1.20;;;;;;;20.59;33.96;99563.59;5005562;28;20030;-64
2022/05/25 11:22:44;;;;;;;6.28;1.40;;;;;;;20.19;34.20;99561.09;5005810;28;20048;-66
2022/05/25 11:25:34;;;;;;;3.65;1.38;;;;;;;20.23;34.87;99565.16;5005156;28;20370;-65
2022/05/25 11:28:12;;;;;;;3.17;1.13;;;;;;;19.83;34.17;99561.66;5004829;28;20096;-66
2022/05/25 11:30:56;;;;;;;1.17;1.08;;;;;;;19.89;33.97;99560.28;5005529;28;20068;-67
2022/05/25 11:33:24;;;;;;;3.50;1.55;;;;;;;20.20;34.39;99550.25;5005618;28;20038;-65
2022/05/25 11:36:18;;;;;;;3.25;1.75;;;;;;;20.47;33.92;99564.72;5004985;28;20050;-66
2022/05/25 11:39:28;;;;;;;2.53;1.17;;;;;;;20.47;31.52;99551.31;5005390;28;20494;-64
2022/05/25 11:42:07;;;;;;;3.85;1.40;;;;;;;20.53;32.13;99551.59;4983626;28;20039;-66
2022/05/25 11:45:10;;;;;;;6.25;1.77;;;;;;;20.74;32.17;99550.56;4985809;28;20065;-66
2022/05/25 11:47:55;;;;;;;2.42;1.20;;;;;;;20.85;32.10;99545.03;4985036;28;20045;-65
2022/05/25 11:50:30;;;;;;;1.80;1.27;;;;;;;20.82;32.01;99545.31;4985359;28;20129;-67
2022/05/25 11:53:15;;;;;;;3.08;1.38;;;;;;;20.94;32.21;99548.66;4985720;28;20901;-66
2022/05/25 11:56:37;;;;;;;1.27;0.98;;;;;;;20.90;31.61;99536.56;4986188;28;20100;-72
2022/05/25 11:59:21;;;;;;;6.80;1.52;;;;;;;20.70;30.63;99533.09;4985429;28;20038;-65
2022/05/25 12:02:05;;;;;;;5.47;1.52;;;;;;;20.38;31.56;99547.69;4984346;28;20425;-68
2022/05/25 12:05:08;;;;;;;2.53;1.27;;;;;;;20.49;31.03;99544.81;4986169;28;20038;-68
2022/05/25 12:08:03;;;;;;;2.55;1.63;;;;;;;20.66;32.30;99543.25;4984706;28;20126;-70
2022/05/25 12:10:36;;;;;;;2.67;1.10;;;;;;;20.79;32.52;99540.25;4985942;28;20042;-67
2022/05/25 12:13:25;;;;;;;2.05;1.30;;;;;;;20.95;32.22;99537.78;4985416;28;20156;-65
2022/05/25 12:16:21;;;;;;;2.40;1.63;;;;;;;20.87;31.62;99532.34;4984585;28;20058;-67
2022/05/25 12:19:21;;;;;;;7.45;1.90;;;;;;;21.04;31.21;99530.69;4985683;28;20034;-67
2022/05/25 12:21:53;;;;;;;9.63;1.23;;;;;;;21.10;31.28;99535.47;4984924;28;20045;-67
2022/05/25 12:24:29;;;;;;;4.82;1.85;;;;;;;21.27;31.78;99535.66;4987603;28;20124;-67